Time;durP1;ratioP1;P1;durP2;ratioP2;P2;SDS_P1;SDS_P2;PMS_P1;PMS_P2;Temp;Humidity;BMP_temperature;BMP_pressure;BME280_temperature;BME280_humidity;BME280_pressure;Samples;Min_cycle;Max_cycle;Signal;HPM_P1;HPM_P2
2021/09/28 00:08:53;;;;;;;3.73;0.60;;;13.50;99.90;;;;;;20690682;28;20061;-79
2021/09/28 00:18:54;;;;;;;2.37;0.60;;;13.60;99.90;;;;;;20702050;28;20026;-79
2021/09/28 00:28:55;;;;;;;0.60;0.50;;;13.50;99.90;;;;;;20688001;28;20034;-79
2021/09/28 00:38:55;;;;;;;2.00;0.60;;;13.50;99.90;;;;;;20688174;28;20039;-80
2021/09/28 00:48:56;;;;;;;2.90;0.60;;;13.50;99.90;;;;;;20688070;28;20508;-79
2021/09/28 00:59:00;;;;;;;0.43;0.43;;;13.50;99.90;;;;;;20684231;28;20037;-79
2021/09/28 01:09:01;;;;;;;3.65;0.60;;;13.50;99.90;;;;;;20699718;28;20034;-79
2021/09/28 01:19:02;;;;;;;1.00;0.50;;;13.40;99.90;;;;;;20700284;28;20418;-79
2021/09/28 01:29:07;;;;;;;0.70;0.57;;;13.30;99.90;;;;;;20680815;28;20034;-79
2021/09/28 01:39:08;;;;;;;1.20;0.60;;;13.20;99.90;;;;;;20695947;28;20038;-80
2021/09/28 01:49:11;;;;;;;1.90;0.83;;;13.20;99.90;;;;;;20697343;28;20033;-79
2021/09/28 01:59:12;;;;;;;0.95;0.65;;;13.20;99.90;;;;;;20697323;28;20047;-79
2021/09/28 02:09:14;;;;;;;3.50;0.90;;;13.10;99.90;;;;;;20680520;28;20505;-79
2021/09/28 02:19:15;;;;;;;8.85;0.98;;;13.10;99.90;;;;;;20698798;28;20031;-78
2021/09/28 02:29:16;;;;;;;6.57;0.63;;;13.00;99.90;;;;;;20683346;28;20458;-79
2021/09/28 02:39:18;;;;;;;9.43;0.87;;;12.90;99.90;;;;;;20712816;28;20094;-79
2021/09/28 02:49:19;;;;;;;1.40;0.40;;;12.90;99.90;;;;;;20697612;28;20497;-80
2021/09/28 02:59:20;;;;;;;0.77;0.60;;;12.90;99.90;;;;;;20702878;28;20080;-79
2021/09/28 03:09:21;;;;;;;0.63;0.50;;;12.80;99.90;;;;;;20696682;28;20076;-79
2021/09/28 03:19:21;;;;;;;6.10;0.87;;;12.80;99.90;;;;;;20692087;28;20101;-79
2021/09/28 03:29:22;;;;;;;1.57;0.50;;;12.80;99.90;;;;;;20688569;28;20481;-80
2021/09/28 03:39:23;;;;;;;3.43;0.67;;;12.80;99.90;;;;;;20667800;28;20034;-80
2021/09/28 03:49:24;;;;;;;3.27;0.67;;;12.80;99.90;;;;;;20691390;28;20034;-79
2021/09/28 03:59:25;;;;;;;3.90;0.60;;;12.90;99.90;;;;;;20699505;28;20509;-80
2021/09/28 04:09:26;;;;;;;1.73;0.40;;;12.90;99.90;;;;;;20693597;28;20030;-79
2021/09/28 04:19:27;;;;;;;2.40;0.60;;;12.80;99.90;;;;;;20692778;28;20046;-80
2021/09/28 04:29:28;;;;;;;0.50;0.40;;;12.70;99.90;;;;;;20674470;28;20042;-80
2021/09/28 04:39:28;;;;;;;2.30;0.57;;;12.70;99.90;;;;;;20701573;28;20022;-79
2021/09/28 04:49:29;;;;;;;6.77;0.63;;;12.60;99.90;;;;;;20698242;28;20129;-80
2021/09/28 04:59:32;;;;;;;1.73;0.50;;;12.60;99.90;;;;;;20696528;28;20034;-79
2021/09/28 05:09:33;;;;;;;1.40;0.73;;;12.60;99.90;;;;;;20689598;28;20038;-79
2021/09/28 05:19:34;;;;;;;;;;;12.60;99.90;;;;;;20682658;28;20409;-79
2021/09/28 05:29:35;;;;;;;4.63;1.02;;;12.50;99.90;;;;;;20718687;28;19913;-80
2021/09/28 05:39:36;;;;;;;4.13;1.60;;;12.30;99.90;;;;;;20734399;28;20034;-79
2021/09/28 05:49:40;;;;;;;2.43;1.30;;;12.40;99.90;;;;;;20749093;28;20041;-79
2021/09/28 05:59:41;;;;;;;2.22;0.90;;;12.50;99.90;;;;;;20746127;28;20121;-80
2021/09/28 06:09:42;;;;;;;2.50;1.27;;;12.60;99.90;;;;;;20741469;28;20022;-78
2021/09/28 06:19:43;;;;;;;3.47;1.50;;;12.80;99.90;;;;;;20785525;28;20030;-79
2021/09/28 06:29:45;;;;;;;5.60;1.50;;;12.80;99.90;;;;;;20711461;28;20109;-80
2021/09/28 06:39:46;;;;;;;11.05;1.35;;;13.00;99.90;;;;;;20701763;28;20038;-78
2021/09/28 06:49:46;;;;;;;3.43;1.10;;;13.00;99.90;;;;;;20683451;28;20501;-79
2021/09/28 06:59:47;;;;;;;3.63;1.23;;;13.20;99.90;;;;;;20699016;28;20034;-79
2021/09/28 07:09:48;;;;;;;29.33;5.93;;;13.40;99.90;;;;;;20699050;28;20027;-78
2021/09/28 07:19:49;;;;;;;5.03;1.87;;;14.10;99.90;;;;;;20697988;28;20045;-79
2021/09/28 07:29:50;;;;;;;25.47;3.83;;;14.30;99.90;;;;;;20689061;28;20042;-79
2021/09/28 07:39:51;;;;;;;22.73;3.80;;;15.10;99.90;;;;;;20687473;28;20034;-78
2021/09/28 07:49:52;;;;;;;12.30;1.13;;;15.60;99.90;;;;;;20681895;28;20053;-78
2021/09/28 07:59:54;;;;;;;5.00;0.70;;;15.60;99.90;;;;;;20676851;28;20066;-78
2021/09/28 08:09:59;;;;;;;3.70;0.65;;;17.00;99.90;;;;;;20683930;28;20034;-79
2021/09/28 08:20:00;;;;;;;4.22;0.80;;;18.60;99.90;;;;;;20727619;28;20038;-80
2021/09/28 08:30:06;;;;;;;6.37;0.93;;;18.40;99.90;;;;;;20751283;28;20459;-78
2021/09/28 08:40:08;;;;;;;7.45;0.90;;;19.00;99.90;;;;;;20754356;28;20486;-78
2021/09/28 08:50:20;;;;;;;1.45;0.52;;;19.20;99.90;;;;;;20742128;28;20104;-80
2021/09/28 09:00:23;;;;;;;1.52;0.50;;;19.10;99.90;;;;;;20717731;28;20409;-80
2021/09/28 09:10:30;;;;;;;4.53;0.88;;;19.10;99.90;;;;;;20743303;28;20041;-79
2021/09/28 09:20:34;;;;;;;2.92;0.70;;;19.10;99.90;;;;;;20714250;28;20401;-80
2021/09/28 09:30:35;;;;;;;4.10;1.23;;;19.90;99.90;;;;;;20742567;28;20065;-79
2021/09/28 09:40:47;;;;;;;4.27;1.10;;;20.70;99.90;;;;;;20761286;28;20038;-81
2021/09/28 09:50:56;;;;;;;3.15;0.80;;;21.10;99.90;;;;;;20759857;28;20045;-78
2021/09/28 10:00:58;;;;;;;6.55;0.80;;;21.10;99.90;;;;;;20760702;28;20042;-77
2021/09/28 10:11:00;;;;;;;8.63;0.93;;;22.30;99.90;;;;;;20740599;28;20041;-80
2021/09/28 10:21:37;;;;;;;3.50;0.60;;;21.50;99.90;;;;;;20757900;28;20037;-77
2021/09/28 10:31:37;;;;;;;2.28;0.95;;;23.30;99.90;;;;;;20738819;28;20033;-81
2021/09/28 10:41:44;;;;;;;6.83;0.60;;;22.50;99.90;;;;;;20756612;28;20049;-81
2021/09/28 10:51:45;;;;;;;3.22;0.95;;;22.60;99.90;;;;;;20751882;28;20453;-79
2021/09/28 11:02:09;;;;;;;2.97;0.60;;;22.20;99.90;;;;;;20755210;28;20033;-78
2021/09/28 11:12:10;;;;;;;1.73;0.80;;;21.80;99.90;;;;;;20755029;28;20037;-79
2021/09/28 11:22:16;;;;;;;2.17;0.57;;;21.80;99.90;;;;;;20729017;28;20042;-79
2021/09/28 11:32:18;;;;;;;4.88;0.80;;;21.90;99.90;;;;;;20671971;28;20042;-80
2021/09/28 11:42:19;;;;;;;2.28;0.93;;;22.10;99.90;;;;;;20670847;28;20065;-80
2021/09/28 11:52:20;;;;;;;;;;;22.20;99.90;;;;;;20671395;28;20062;-81
2021/09/28 12:02:22;;;;;;;1.75;0.88;;;22.30;99.90;;;;;;20655782;28;19921;-82
2021/09/28 12:12:28;;;;;;;2.17;0.70;;;22.20;99.90;;;;;;20656358;28;20026;-80
2021/09/28 12:22:35;;;;;;;3.13;0.65;;;21.60;99.90;;;;;;20655316;28;20022;-80
2021/09/28 12:32:36;;;;;;;1.90;0.70;;;21.10;99.90;;;;;;20672870;28;20116;-82
2021/09/28 12:42:39;;;;;;;2.70;0.80;;;21.00;99.90;;;;;;20672955;28;20089;-82
2021/09/28 12:52:39;;;;;;;4.55;0.80;;;21.40;99.90;;;;;;20672224;28;20054;-80
2021/09/28 13:02:40;;;;;;;3.13;0.70;;;21.30;99.90;;;;;;20665716;28;20038;-81
2021/09/28 13:12:42;;;;;;;3.33;0.77;;;21.40;99.90;;;;;;20685383;28;20026;-81
2021/09/28 13:22:44;;;;;;;6.45;1.38;;;21.40;99.90;;;;;;20685959;28;20026;-83
2021/09/28 13:32:45;;;;;;;2.80;0.70;;;21.60;99.90;;;;;;20667548;28;20069;-81
2021/09/28 13:42:46;;;;;;;3.73;0.77;;;21.50;99.90;;;;;;20684654;28;20030;-79
2021/09/28 13:52:47;;;;;;;1.17;0.60;;;21.70;99.90;;;;;;20686389;28;20027;-81
2021/09/28 14:02:48;;;;;;;2.33;0.60;;;21.60;99.90;;;;;;20680089;28;20038;-80
2021/09/28 14:12:48;;;;;;;4.37;0.73;;;21.60;99.90;;;;;;20675491;28;20474;-82
2021/09/28 14:22:49;;;;;;;1.87;0.57;;;21.80;99.90;;;;;;20645822;28;20057;-81
2021/09/28 14:32:50;;;;;;;5.30;1.20;;;21.60;99.90;;;;;;20654347;28;20038;-80
2021/09/28 14:42:51;;;;;;;4.60;0.73;;;21.80;99.90;;;;;;20655475;28;20522;-82
2021/09/28 14:53:35;;;;;;;2.47;0.90;;;21.40;99.90;;;;;;20713003;28;20025;-82
2021/09/28 15:03:36;;;;;;;6.47;1.10;;;21.40;99.90;;;;;;20673029;28;20416;-79
2021/09/28 15:13:38;;;;;;;3.15;1.05;;;22.10;99.90;;;;;;20669731;28;20034;-79
2021/09/28 15:23:41;;;;;;;2.58;0.80;;;22.00;99.90;;;;;;20695552;28;20141;-80
2021/09/28 15:33:41;;;;;;;6.72;1.00;;;21.70;99.90;;;;;;20686394;28;20026;-79
2021/09/28 15:43:42;;;;;;;4.03;1.20;;;21.90;99.90;;;;;;20686343;28;20034;-79
2021/09/28 15:53:43;;;;;;;6.20;0.90;;;20.90;99.90;;;;;;20682897;28;20034;-79
2021/09/28 16:03:45;;;;;;;5.63;1.20;;;20.00;99.90;;;;;;20681002;28;20064;-80
2021/09/28 16:13:47;;;;;;;6.13;1.08;;;19.40;99.90;;;;;;20697045;28;20523;-78
2021/09/28 16:23:51;;;;;;;1.83;0.90;;;19.40;99.90;;;;;;20743633;28;20580;-79
2021/09/28 16:33:52;;;;;;;2.47;0.93;;;19.00;99.90;;;;;;20708282;28;20061;-79
2021/09/28 16:43:53;;;;;;;3.92;0.80;;;18.60;99.90;;;;;;20740921;28;20508;-79
2021/09/28 16:53:54;;;;;;;5.60;1.17;;;18.50;99.90;;;;;;20719881;28;20037;-79
2021/09/28 17:03:55;;;;;;;5.50;1.43;;;17.50;99.90;;;;;;20683582;28;20342;-78
2021/09/28 17:13:56;;;;;;;6.10;1.87;;;16.60;99.90;;;;;;20658265;28;20033;-79
2021/09/28 17:23:57;;;;;;;10.17;3.30;;;16.20;99.90;;;;;;20642446;28;20486;-79
2021/09/28 17:33:58;;;;;;;3.03;1.23;;;16.00;99.90;;;;;;20675942;28;20061;-79
2021/09/28 17:43:58;;;;;;;3.30;1.20;;;15.90;99.90;;;;;;20654030;28;20045;-79
2021/09/28 17:54:05;;;;;;;3.80;1.53;;;15.60;99.90;;;;;;20692598;28;20038;-79
2021/09/28 18:04:05;;;;;;;4.35;2.15;;;15.50;99.90;;;;;;20662835;28;20034;-80
2021/09/28 18:14:10;;;;;;;6.07;1.80;;;15.30;99.90;;;;;;20702797;28;20519;-79
2021/09/28 18:24:10;;;;;;;4.65;2.40;;;15.30;99.90;;;;;;20644767;28;20536;-82
2021/09/28 18:34:12;;;;;;;6.80;1.87;;;15.30;99.90;;;;;;20684999;28;20046;-79
2021/09/28 18:44:16;;;;;;;3.53;1.43;;;15.10;99.90;;;;;;20673547;28;20389;-79
2021/09/28 18:54:17;;;;;;;5.95;1.65;;;15.20;99.90;;;;;;20738647;28;20572;-81
2021/09/28 19:04:32;;;;;;;2.83;1.20;;;15.50;99.90;;;;;;20743119;28;20030;-79
2021/09/28 19:14:35;;;;;;;2.78;1.27;;;15.20;99.90;;;;;;20669291;28;20160;-80
2021/09/28 19:24:36;;;;;;;4.05;1.80;;;15.20;99.90;;;;;;20655815;28;20042;-79
2021/09/28 19:34:37;;;;;;;2.73;1.50;;;15.30;99.90;;;;;;20654950;28;20089;-80
2021/09/28 19:44:41;;;;;;;3.63;1.87;;;15.30;99.90;;;;;;20596746;28;20031;-80
2021/09/28 20:05:14;;;;;;;3.05;1.63;;;15.40;99.90;;;;;;20746238;28;20057;-78
2021/09/28 20:36:02;;;;;;;4.03;2.10;;;14.80;99.90;;;;;;20742708;28;20030;-78
2021/09/28 20:46:03;;;;;;;4.18;1.80;;;14.90;99.90;;;;;;20728487;28;20033;-78
2021/09/28 20:56:04;;;;;;;2.70;1.70;;;14.90;99.90;;;;;;20744911;28;20026;-78
2021/09/28 21:06:05;;;;;;;3.80;1.60;;;15.00;99.90;;;;;;20741019;28;20295;-79
2021/09/28 21:16:07;;;;;;;4.90;1.70;;;15.00;99.90;;;;;;20750625;28;20033;-79
2021/09/28 21:26:08;;;;;;;5.05;1.98;;;15.10;99.90;;;;;;20764947;28;20093;-79
2021/09/28 21:36:31;;;;;;;5.80;1.70;;;14.90;99.90;;;;;;20764363;28;20029;-79
2021/09/28 21:46:32;;;;;;;7.55;2.05;;;14.80;99.90;;;;;;20781106;28;20045;-79
2021/09/28 21:56:33;;;;;;;3.10;1.80;;;14.90;99.90;;;;;;20785714;28;20029;-81
2021/09/28 22:06:34;;;;;;;6.93;2.80;;;14.50;99.90;;;;;;20773158;28;20034;-81
2021/09/28 22:16:36;;;;;;;8.13;3.13;;;14.50;99.90;;;;;;20739429;28;20042;-81
2021/09/28 22:26:38;;;;;;;7.88;2.88;;;14.20;99.90;;;;;;20770975;28;20508;-81
2021/09/28 22:36:38;;;;;;;;;;;14.10;99.90;;;;;;20768946;28;20034;-80
2021/09/28 22:46:40;;;;;;;10.95;3.95;;;14.00;99.90;;;;;;20769495;28;19976;-80
2021/09/28 22:56:40;;;;;;;10.80;4.37;;;14.00;99.90;;;;;;20770491;28;20034;-81
2021/09/28 23:06:41;;;;;;;6.93;3.93;;;13.90;99.90;;;;;;20774444;28;20237;-81
2021/09/28 23:16:42;;;;;;;15.40;4.33;;;13.90;99.90;;;;;;20777289;28;20037;-81
2021/09/28 23:26:43;;;;;;;5.93;3.37;;;13.80;99.90;;;;;;20756393;28;20034;-80
2021/09/28 23:36:44;;;;;;;8.30;4.07;;;13.90;99.90;;;;;;20759618;28;20068;-81
2021/09/28 23:46:45;;;;;;;12.40;4.43;;;13.80;99.90;;;;;;20774794;28;20070;-80
2021/09/28 23:56:48;;;;;;;13.43;5.67;;;13.90;99.90;;;;;;20775455;28;20106;-80
